sensor_id;sensor_type;location;lat;lon;timestamp;P1;durP1;ratioP1;P2;durP2;ratioP2
39344;SDS011;25061;51.954;6.996;2023-02-15T00:01:18;31.63;;;14.65;;
39344;SDS011;25061;51.954;6.996;2023-02-15T00:03:43;27.80;;;13.68;;
39344;SDS011;25061;51.954;6.996;2023-02-15T00:06:09;27.45;;;14.25;;
39344;SDS011;25061;51.954;6.996;2023-02-15T00:08:34;29.38;;;13.93;;
39344;SDS011;25061;51.954;6.996;2023-02-15T00:11:07;27.88;;;13.43;;
39344;SDS011;25061;51.954;6.996;2023-02-15T00:13:34;29.88;;;15.50;;
39344;SDS011;25061;51.954;6.996;2023-02-15T00:16:05;33.17;;;15.65;;
39344;SDS011;25061;51.954;6.996;2023-02-15T00:18:32;27.20;;;13.48;;
39344;SDS011;25061;51.954;6.996;2023-02-15T00:20:58;31.20;;;15.98;;
39344;SDS011;25061;51.954;6.996;2023-02-15T00:23:27;29.55;;;15.48;;
39344;SDS011;25061;51.954;6.996;2023-02-15T00:26:02;25.67;;;13.65;;
39344;SDS011;25061;51.954;6.996;2023-02-15T00:28:35;26.55;;;14.32;;
39344;SDS011;25061;51.954;6.996;2023-02-15T00:31:08;28.33;;;14.57;;
39344;SDS011;25061;51.954;6.996;2023-02-15T00:33:35;29.13;;;13.57;;
39344;SDS011;25061;51.954;6.996;2023-02-15T00:36:02;29.83;;;15.30;;
39344;SDS011;25061;51.954;6.996;2023-02-15T00:38:28;28.27;;;13.90;;
39344;SDS011;25061;51.954;6.996;2023-02-15T00:40:56;29.55;;;14.90;;
39344;SDS011;25061;51.954;6.996;2023-02-15T00:43:23;25.00;;;13.35;;
39344;SDS011;25061;51.954;6.996;2023-02-15T00:45:49;26.70;;;14.25;;
39344;SDS011;25061;51.954;6.996;2023-02-15T00:48:15;30.15;;;13.50;;
39344;SDS011;25061;51.954;6.996;2023-02-15T00:50:41;24.38;;;12.88;;
39344;SDS011;25061;51.954;6.996;2023-02-15T00:53:06;24.58;;;12.85;;
39344;SDS011;25061;51.954;6.996;2023-02-15T00:55:32;26.90;;;13.10;;
39344;SDS011;25061;51.954;6.996;2023-02-15T00:57:58;23.02;;;12.05;;
39344;SDS011;25061;51.954;6.996;2023-02-15T01:00:23;22.98;;;12.38;;
39344;SDS011;25061;51.954;6.996;2023-02-15T01:02:49;28.77;;;13.18;;
39344;SDS011;25061;51.954;6.996;2023-02-15T01:05:15;27.55;;;14.13;;
39344;SDS011;25061;51.954;6.996;2023-02-15T01:07:40;26.35;;;13.15;;
39344;SDS011;25061;51.954;6.996;2023-02-15T01:10:06;24.67;;;12.07;;
39344;SDS011;25061;51.954;6.996;2023-02-15T01:12:32;28.20;;;13.50;;
39344;SDS011;25061;51.954;6.996;2023-02-15T01:14:58;24.42;;;13.05;;
39344;SDS011;25061;51.954;6.996;2023-02-15T01:17:24;26.73;;;13.32;;
39344;SDS011;25061;51.954;6.996;2023-02-15T01:19:49;24.20;;;13.43;;
39344;SDS011;25061;51.954;6.996;2023-02-15T01:22:16;26.60;;;13.35;;
39344;SDS011;25061;51.954;6.996;2023-02-15T01:24:42;24.80;;;12.32;;
39344;SDS011;25061;51.954;6.996;2023-02-15T01:27:07;22.38;;;12.20;;
39344;SDS011;25061;51.954;6.996;2023-02-15T01:29:33;26.58;;;13.57;;
39344;SDS011;25061;51.954;6.996;2023-02-15T01:31:58;26.20;;;11.68;;
39344;SDS011;25061;51.954;6.996;2023-02-15T01:34:24;26.08;;;12.70;;
39344;SDS011;25061;51.954;6.996;2023-02-15T01:36:50;25.80;;;12.18;;
39344;SDS011;25061;51.954;6.996;2023-02-15T01:39:15;25.23;;;11.90;;
39344;SDS011;25061;51.954;6.996;2023-02-15T01:41:41;24.17;;;11.18;;
39344;SDS011;25061;51.954;6.996;2023-02-15T01:47:10;25.67;;;13.20;;
39344;SDS011;25061;51.954;6.996;2023-02-15T01:49:39;24.15;;;11.77;;
39344;SDS011;25061;51.954;6.996;2023-02-15T01:52:07;21.17;;;11.48;;
39344;SDS011;25061;51.954;6.996;2023-02-15T01:54:35;24.92;;;12.90;;
39344;SDS011;25061;51.954;6.996;2023-02-15T01:57:08;23.73;;;11.63;;
39344;SDS011;25061;51.954;6.996;2023-02-15T01:59:37;22.88;;;11.82;;
39344;SDS011;25061;51.954;6.996;2023-02-15T02:02:05;22.85;;;11.27;;
39344;SDS011;25061;51.954;6.996;2023-02-15T02:04:53;26.25;;;12.30;;
39344;SDS011;25061;51.954;6.996;2023-02-15T02:07:24;24.75;;;11.80;;
39344;SDS011;25061;51.954;6.996;2023-02-15T02:09:52;25.35;;;11.88;;
39344;SDS011;25061;51.954;6.996;2023-02-15T02:12:18;31.65;;;12.82;;
39344;SDS011;25061;51.954;6.996;2023-02-15T02:14:46;23.23;;;12.93;;
39344;SDS011;25061;51.954;6.996;2023-02-15T02:17:19;23.83;;;11.45;;
39344;SDS011;25061;51.954;6.996;2023-02-15T02:22:42;22.48;;;11.40;;
39344;SDS011;25061;51.954;6.996;2023-02-15T02:25:41;24.70;;;12.60;;
39344;SDS011;25061;51.954;6.996;2023-02-15T02:34:47;30.92;;;13.13;;
39344;SDS011;25061;51.954;6.996;2023-02-15T02:37:23;27.98;;;13.80;;
39344;SDS011;25061;51.954;6.996;2023-02-15T02:39:57;29.00;;;13.45;;
39344;SDS011;25061;51.954;6.996;2023-02-15T02:42:40;25.15;;;13.50;;
39344;SDS011;25061;51.954;6.996;2023-02-15T02:45:13;27.55;;;12.93;;
39344;SDS011;25061;51.954;6.996;2023-02-15T02:48:01;23.85;;;11.90;;
39344;SDS011;25061;51.954;6.996;2023-02-15T02:50:32;27.50;;;13.77;;
39344;SDS011;25061;51.954;6.996;2023-02-15T02:52:58;23.70;;;12.93;;
39344;SDS011;25061;51.954;6.996;2023-02-15T02:55:45;25.42;;;11.90;;
39344;SDS011;25061;51.954;6.996;2023-02-15T03:00:45;21.95;;;11.77;;
39344;SDS011;25061;51.954;6.996;2023-02-15T03:03:27;25.83;;;13.00;;
39344;SDS011;25061;51.954;6.996;2023-02-15T03:08:45;25.45;;;12.00;;
39344;SDS011;25061;51.954;6.996;2023-02-15T03:11:19;26.40;;;12.77;;
39344;SDS011;25061;51.954;6.996;2023-02-15T03:13:44;25.33;;;12.30;;
39344;SDS011;25061;51.954;6.996;2023-02-15T03:16:13;26.20;;;11.57;;
39344;SDS011;25061;51.954;6.996;2023-02-15T03:24:15;26.23;;;12.82;;
39344;SDS011;25061;51.954;6.996;2023-02-15T03:26:45;25.77;;;12.77;;
39344;SDS011;25061;51.954;6.996;2023-02-15T03:29:13;28.67;;;14.25;;
39344;SDS011;25061;51.954;6.996;2023-02-15T03:31:41;25.77;;;13.20;;
39344;SDS011;25061;51.954;6.996;2023-02-15T03:34:10;27.58;;;13.02;;
39344;SDS011;25061;51.954;6.996;2023-02-15T03:44:31;32.15;;;14.35;;
39344;SDS011;25061;51.954;6.996;2023-02-15T03:47:03;25.63;;;12.73;;
39344;SDS011;25061;51.954;6.996;2023-02-15T03:52:15;25.27;;;12.40;;
39344;SDS011;25061;51.954;6.996;2023-02-15T03:54:42;28.35;;;13.85;;
39344;SDS011;25061;51.954;6.996;2023-02-15T03:57:16;27.42;;;14.10;;
39344;SDS011;25061;51.954;6.996;2023-02-15T04:05:32;23.77;;;13.02;;
39344;SDS011;25061;51.954;6.996;2023-02-15T04:07:58;26.67;;;12.20;;
39344;SDS011;25061;51.954;6.996;2023-02-15T04:10:23;26.90;;;13.80;;
39344;SDS011;25061;51.954;6.996;2023-02-15T04:13:07;24.77;;;12.77;;
39344;SDS011;25061;51.954;6.996;2023-02-15T04:15:33;25.95;;;13.18;;
39344;SDS011;25061;51.954;6.996;2023-02-15T04:18:18;23.23;;;11.00;;
39344;SDS011;25061;51.954;6.996;2023-02-15T04:20:44;24.90;;;11.95;;
39344;SDS011;25061;51.954;6.996;2023-02-15T04:23:29;22.60;;;11.65;;
39344;SDS011;25061;51.954;6.996;2023-02-15T04:26:14;25.45;;;12.65;;
39344;SDS011;25061;51.954;6.996;2023-02-15T04:28:40;22.70;;;11.40;;
39344;SDS011;25061;51.954;6.996;2023-02-15T04:31:05;22.77;;;11.57;;
39344;SDS011;25061;51.954;6.996;2023-02-15T04:33:31;22.98;;;12.23;;
39344;SDS011;25061;51.954;6.996;2023-02-15T04:35:57;23.83;;;11.70;;
39344;SDS011;25061;51.954;6.996;2023-02-15T04:38:23;26.83;;;12.95;;
39344;SDS011;25061;51.954;6.996;2023-02-15T04:40:50;21.80;;;10.80;;
39344;SDS011;25061;51.954;6.996;2023-02-15T04:43:17;26.30;;;13.05;;
39344;SDS011;25061;51.954;6.996;2023-02-15T04:45:47;32.58;;;15.52;;
39344;SDS011;25061;51.954;6.996;2023-02-15T04:48:14;23.58;;;13.18;;
39344;SDS011;25061;51.954;6.996;2023-02-15T04:50:40;22.50;;;11.40;;
39344;SDS011;25061;51.954;6.996;2023-02-15T04:53:07;35.10;;;16.60;;
39344;SDS011;25061;51.954;6.996;2023-02-15T04:55:33;34.55;;;16.58;;
39344;SDS011;25061;51.954;6.996;2023-02-15T04:57:59;24.55;;;13.70;;
39344;SDS011;25061;51.954;6.996;2023-02-15T05:00:25;24.80;;;12.85;;
39344;SDS011;25061;51.954;6.996;2023-02-15T05:02:52;24.80;;;12.95;;
39344;SDS011;25061;51.954;6.996;2023-02-15T05:05:18;26.17;;;13.27;;
39344;SDS011;25061;51.954;6.996;2023-02-15T05:07:44;26.70;;;13.68;;
39344;SDS011;25061;51.954;6.996;2023-02-15T05:10:10;27.35;;;13.93;;
39344;SDS011;25061;51.954;6.996;2023-02-15T05:12:36;25.98;;;13.50;;
39344;SDS011;25061;51.954;6.996;2023-02-15T05:15:02;27.95;;;14.57;;
39344;SDS011;25061;51.954;6.996;2023-02-15T05:17:28;28.55;;;14.30;;
39344;SDS011;25061;51.954;6.996;2023-02-15T05:19:54;27.48;;;14.48;;
39344;SDS011;25061;51.954;6.996;2023-02-15T05:22:20;24.42;;;13.57;;
39344;SDS011;25061;51.954;6.996;2023-02-15T05:24:47;25.98;;;13.98;;
39344;SDS011;25061;51.954;6.996;2023-02-15T05:27:31;25.85;;;14.00;;
39344;SDS011;25061;51.954;6.996;2023-02-15T05:30:16;26.88;;;13.95;;
39344;SDS011;25061;51.954;6.996;2023-02-15T05:32:42;25.50;;;12.40;;
39344;SDS011;25061;51.954;6.996;2023-02-15T05:35:11;25.92;;;13.82;;
39344;SDS011;25061;51.954;6.996;2023-02-15T05:37:38;24.40;;;12.15;;
39344;SDS011;25061;51.954;6.996;2023-02-15T05:40:04;28.42;;;12.73;;
39344;SDS011;25061;51.954;6.996;2023-02-15T05:42:30;29.10;;;14.40;;
39344;SDS011;25061;51.954;6.996;2023-02-15T05:44:56;25.40;;;12.90;;
39344;SDS011;25061;51.954;6.996;2023-02-15T05:47:22;28.45;;;14.15;;
39344;SDS011;25061;51.954;6.996;2023-02-15T05:49:48;24.98;;;12.57;;
39344;SDS011;25061;51.954;6.996;2023-02-15T05:52:18;24.58;;;13.25;;
39344;SDS011;25061;51.954;6.996;2023-02-15T05:54:44;24.75;;;12.88;;
39344;SDS011;25061;51.954;6.996;2023-02-15T05:57:10;26.95;;;13.68;;
39344;SDS011;25061;51.954;6.996;2023-02-15T05:59:36;29.77;;;13.75;;
39344;SDS011;25061;51.954;6.996;2023-02-15T06:02:02;25.40;;;13.43;;
39344;SDS011;25061;51.954;6.996;2023-02-15T06:04:28;25.88;;;14.02;;
39344;SDS011;25061;51.954;6.996;2023-02-15T06:06:54;24.55;;;12.95;;
39344;SDS011;25061;51.954;6.996;2023-02-15T06:09:20;24.83;;;13.00;;
39344;SDS011;25061;51.954;6.996;2023-02-15T06:11:46;25.35;;;12.80;;
39344;SDS011;25061;51.954;6.996;2023-02-15T06:14:12;27.13;;;14.30;;
39344;SDS011;25061;51.954;6.996;2023-02-15T06:16:37;27.33;;;15.07;;
39344;SDS011;25061;51.954;6.996;2023-02-15T06:19:03;27.85;;;13.90;;
39344;SDS011;25061;51.954;6.996;2023-02-15T06:21:30;24.80;;;13.77;;
39344;SDS011;25061;51.954;6.996;2023-02-15T06:23:56;26.30;;;13.05;;
39344;SDS011;25061;51.954;6.996;2023-02-15T06:26:22;25.63;;;12.75;;
39344;SDS011;25061;51.954;6.996;2023-02-15T06:28:48;27.73;;;12.98;;
39344;SDS011;25061;51.954;6.996;2023-02-15T06:31:14;25.30;;;13.35;;
39344;SDS011;25061;51.954;6.996;2023-02-15T06:33:40;25.45;;;12.18;;
39344;SDS011;25061;51.954;6.996;2023-02-15T06:36:06;23.40;;;12.15;;
39344;SDS011;25061;51.954;6.996;2023-02-15T06:41:02;27.05;;;13.85;;
39344;SDS011;25061;51.954;6.996;2023-02-15T06:43:28;24.88;;;12.25;;
39344;SDS011;25061;51.954;6.996;2023-02-15T06:45:54;25.30;;;12.48;;
39344;SDS011;25061;51.954;6.996;2023-02-15T06:48:20;23.98;;;12.05;;
39344;SDS011;25061;51.954;6.996;2023-02-15T06:50:46;23.35;;;12.90;;
39344;SDS011;25061;51.954;6.996;2023-02-15T06:53:12;31.30;;;14.57;;
39344;SDS011;25061;51.954;6.996;2023-02-15T06:55:38;26.23;;;13.52;;
39344;SDS011;25061;51.954;6.996;2023-02-15T06:58:04;27.67;;;13.50;;
39344;SDS011;25061;51.954;6.996;2023-02-15T07:00:30;26.33;;;13.65;;
39344;SDS011;25061;51.954;6.996;2023-02-15T07:02:56;29.95;;;14.85;;
39344;SDS011;25061;51.954;6.996;2023-02-15T07:05:23;29.55;;;13.40;;
39344;SDS011;25061;51.954;6.996;2023-02-15T07:07:49;23.00;;;11.73;;
39344;SDS011;25061;51.954;6.996;2023-02-15T07:10:15;29.70;;;12.73;;
39344;SDS011;25061;51.954;6.996;2023-02-15T07:12:41;27.30;;;14.13;;
39344;SDS011;25061;51.954;6.996;2023-02-15T07:15:08;32.53;;;15.43;;
39344;SDS011;25061;51.954;6.996;2023-02-15T07:17:34;32.03;;;15.00;;
39344;SDS011;25061;51.954;6.996;2023-02-15T07:20:01;34.38;;;13.95;;
39344;SDS011;25061;51.954;6.996;2023-02-15T07:22:27;27.98;;;13.80;;
39344;SDS011;25061;51.954;6.996;2023-02-15T07:24:53;28.92;;;12.93;;
39344;SDS011;25061;51.954;6.996;2023-02-15T07:27:20;28.20;;;12.95;;
39344;SDS011;25061;51.954;6.996;2023-02-15T07:29:46;25.20;;;12.50;;
39344;SDS011;25061;51.954;6.996;2023-02-15T07:32:12;25.55;;;11.70;;
39344;SDS011;25061;51.954;6.996;2023-02-15T07:34:38;26.02;;;12.63;;
39344;SDS011;25061;51.954;6.996;2023-02-15T07:37:05;23.17;;;13.05;;
39344;SDS011;25061;51.954;6.996;2023-02-15T07:39:31;25.00;;;13.38;;
39344;SDS011;25061;51.954;6.996;2023-02-15T07:41:59;23.02;;;11.75;;
39344;SDS011;25061;51.954;6.996;2023-02-15T07:44:25;24.85;;;11.48;;
39344;SDS011;25061;51.954;6.996;2023-02-15T07:46:51;24.58;;;12.40;;
39344;SDS011;25061;51.954;6.996;2023-02-15T07:49:17;28.80;;;12.32;;
39344;SDS011;25061;51.954;6.996;2023-02-15T07:51:46;27.13;;;12.25;;
39344;SDS011;25061;51.954;6.996;2023-02-15T07:54:12;28.20;;;12.50;;
39344;SDS011;25061;51.954;6.996;2023-02-15T07:56:37;25.23;;;11.82;;
39344;SDS011;25061;51.954;6.996;2023-02-15T07:59:04;21.63;;;10.98;;
39344;SDS011;25061;51.954;6.996;2023-02-15T08:01:37;25.70;;;12.80;;
39344;SDS011;25061;51.954;6.996;2023-02-15T08:04:04;26.45;;;13.05;;
39344;SDS011;25061;51.954;6.996;2023-02-15T08:06:32;30.65;;;15.68;;
39344;SDS011;25061;51.954;6.996;2023-02-15T08:08:58;33.70;;;15.23;;
39344;SDS011;25061;51.954;6.996;2023-02-15T08:11:27;31.05;;;14.68;;
39344;SDS011;25061;51.954;6.996;2023-02-15T08:14:11;29.55;;;12.88;;
39344;SDS011;25061;51.954;6.996;2023-02-15T08:16:41;28.95;;;13.40;;
39344;SDS011;25061;51.954;6.996;2023-02-15T08:19:11;25.20;;;12.18;;
39344;SDS011;25061;51.954;6.996;2023-02-15T08:21:39;25.02;;;12.30;;
39344;SDS011;25061;51.954;6.996;2023-02-15T08:24:05;22.38;;;11.05;;
39344;SDS011;25061;51.954;6.996;2023-02-15T08:26:32;22.77;;;11.50;;
39344;SDS011;25061;51.954;6.996;2023-02-15T08:28:58;24.35;;;12.23;;
39344;SDS011;25061;51.954;6.996;2023-02-15T08:31:25;25.25;;;12.30;;
39344;SDS011;25061;51.954;6.996;2023-02-15T08:33:55;24.08;;;12.88;;
39344;SDS011;25061;51.954;6.996;2023-02-15T08:36:22;32.92;;;11.98;;
39344;SDS011;25061;51.954;6.996;2023-02-15T08:38:49;26.48;;;12.05;;
39344;SDS011;25061;51.954;6.996;2023-02-15T08:41:16;26.05;;;11.93;;
39344;SDS011;25061;51.954;6.996;2023-02-15T08:43:43;25.65;;;12.18;;
39344;SDS011;25061;51.954;6.996;2023-02-15T08:46:10;27.88;;;13.10;;
39344;SDS011;25061;51.954;6.996;2023-02-15T08:48:37;27.40;;;13.40;;
39344;SDS011;25061;51.954;6.996;2023-02-15T08:51:06;42.20;;;15.30;;
39344;SDS011;25061;51.954;6.996;2023-02-15T08:53:33;31.50;;;15.55;;
39344;SDS011;25061;51.954;6.996;2023-02-15T08:55:59;24.75;;;13.80;;
39344;SDS011;25061;51.954;6.996;2023-02-15T08:58:25;29.48;;;13.13;;
39344;SDS011;25061;51.954;6.996;2023-02-15T09:00:51;27.45;;;13.70;;
39344;SDS011;25061;51.954;6.996;2023-02-15T09:03:17;23.23;;;12.18;;
39344;SDS011;25061;51.954;6.996;2023-02-15T09:05:43;27.42;;;12.63;;
39344;SDS011;25061;51.954;6.996;2023-02-15T09:08:09;25.45;;;14.18;;
39344;SDS011;25061;51.954;6.996;2023-02-15T09:10:34;25.83;;;13.27;;
39344;SDS011;25061;51.954;6.996;2023-02-15T09:13:00;26.27;;;13.00;;
39344;SDS011;25061;51.954;6.996;2023-02-15T09:15:25;27.52;;;14.05;;
39344;SDS011;25061;51.954;6.996;2023-02-15T09:17:51;26.00;;;13.07;;
39344;SDS011;25061;51.954;6.996;2023-02-15T09:20:17;26.10;;;13.20;;
39344;SDS011;25061;51.954;6.996;2023-02-15T09:22:43;25.65;;;13.63;;
39344;SDS011;25061;51.954;6.996;2023-02-15T09:25:08;27.75;;;13.68;;
39344;SDS011;25061;51.954;6.996;2023-02-15T09:27:34;26.88;;;12.88;;
39344;SDS011;25061;51.954;6.996;2023-02-15T09:30:01;26.88;;;13.02;;
39344;SDS011;25061;51.954;6.996;2023-02-15T09:32:27;26.13;;;12.90;;
39344;SDS011;25061;51.954;6.996;2023-02-15T09:34:53;27.17;;;14.30;;
39344;SDS011;25061;51.954;6.996;2023-02-15T09:37:18;24.50;;;13.32;;
39344;SDS011;25061;51.954;6.996;2023-02-15T09:39:44;23.30;;;12.82;;
39344;SDS011;25061;51.954;6.996;2023-02-15T09:42:13;28.58;;;14.20;;
39344;SDS011;25061;51.954;6.996;2023-02-15T09:58:58;25.00;;;12.77;;
39344;SDS011;25061;51.954;6.996;2023-02-15T10:04:53;23.73;;;13.00;;
39344;SDS011;25061;51.954;6.996;2023-02-15T10:10:17;28.25;;;14.25;;
39344;SDS011;25061;51.954;6.996;2023-02-15T10:12:59;24.42;;;11.90;;
39344;SDS011;25061;51.954;6.996;2023-02-15T10:15:28;25.85;;;13.60;;
39344;SDS011;25061;51.954;6.996;2023-02-15T10:33:48;24.63;;;12.02;;
39344;SDS011;25061;51.954;6.996;2023-02-15T10:48:23;27.25;;;13.02;;
39344;SDS011;25061;51.954;6.996;2023-02-15T10:50:57;24.75;;;13.43;;
39344;SDS011;25061;51.954;6.996;2023-02-15T11:01:13;27.52;;;11.95;;
39344;SDS011;25061;51.954;6.996;2023-02-15T11:04:09;25.40;;;11.70;;
39344;SDS011;25061;51.954;6.996;2023-02-15T11:07:02;24.23;;;11.23;;
39344;SDS011;25061;51.954;6.996;2023-02-15T11:09:57;24.77;;;11.88;;
39344;SDS011;25061;51.954;6.996;2023-02-15T11:12:44;24.70;;;10.98;;
39344;SDS011;25061;51.954;6.996;2023-02-15T11:18:15;25.73;;;12.05;;
39344;SDS011;25061;51.954;6.996;2023-02-15T11:23:20;24.25;;;11.77;;
39344;SDS011;25061;51.954;6.996;2023-02-15T11:25:52;24.83;;;12.13;;
39344;SDS011;25061;51.954;6.996;2023-02-15T11:28:24;25.35;;;12.63;;
39344;SDS011;25061;51.954;6.996;2023-02-15T11:31:01;25.23;;;12.05;;
39344;SDS011;25061;51.954;6.996;2023-02-15T11:33:49;28.15;;;12.88;;
39344;SDS011;25061;51.954;6.996;2023-02-15T11:36:20;28.75;;;12.85;;
39344;SDS011;25061;51.954;6.996;2023-02-15T11:38:51;27.00;;;12.43;;
39344;SDS011;25061;51.954;6.996;2023-02-15T11:41:24;26.88;;;12.32;;
39344;SDS011;25061;51.954;6.996;2023-02-15T11:43:58;27.98;;;13.15;;
39344;SDS011;25061;51.954;6.996;2023-02-15T11:46:31;24.20;;;11.55;;
39344;SDS011;25061;51.954;6.996;2023-02-15T11:48:57;26.77;;;12.95;;
39344;SDS011;25061;51.954;6.996;2023-02-15T11:51:23;26.65;;;12.52;;
39344;SDS011;25061;51.954;6.996;2023-02-15T11:53:51;29.80;;;13.63;;
39344;SDS011;25061;51.954;6.996;2023-02-15T11:56:19;26.80;;;12.50;;
39344;SDS011;25061;51.954;6.996;2023-02-15T11:58:57;27.27;;;13.38;;
39344;SDS011;25061;51.954;6.996;2023-02-15T12:01:37;28.88;;;13.90;;
39344;SDS011;25061;51.954;6.996;2023-02-15T12:06:49;25.90;;;13.80;;
39344;SDS011;25061;51.954;6.996;2023-02-15T12:15:06;26.20;;;12.98;;
39344;SDS011;25061;51.954;6.996;2023-02-15T12:17:35;29.98;;;14.02;;
39344;SDS011;25061;51.954;6.996;2023-02-15T12:20:07;25.58;;;13.13;;
39344;SDS011;25061;51.954;6.996;2023-02-15T12:22:49;26.38;;;12.18;;
39344;SDS011;25061;51.954;6.996;2023-02-15T12:25:35;27.42;;;13.82;;
39344;SDS011;25061;51.954;6.996;2023-02-15T12:28:15;28.02;;;13.23;;
39344;SDS011;25061;51.954;6.996;2023-02-15T12:30:59;22.95;;;11.60;;
39344;SDS011;25061;51.954;6.996;2023-02-15T12:33:31;28.17;;;13.15;;
39344;SDS011;25061;51.954;6.996;2023-02-15T12:41:43;22.98;;;11.55;;
39344;SDS011;25061;51.954;6.996;2023-02-15T12:44:18;24.58;;;11.25;;
39344;SDS011;25061;51.954;6.996;2023-02-15T12:46:59;25.27;;;13.32;;
39344;SDS011;25061;51.954;6.996;2023-02-15T12:49:32;22.92;;;12.02;;
39344;SDS011;25061;51.954;6.996;2023-02-15T12:52:03;24.00;;;10.90;;
39344;SDS011;25061;51.954;6.996;2023-02-15T12:54:45;21.83;;;11.40;;
39344;SDS011;25061;51.954;6.996;2023-02-15T12:57:21;26.48;;;12.00;;
39344;SDS011;25061;51.954;6.996;2023-02-15T12:59:54;21.02;;;10.23;;
39344;SDS011;25061;51.954;6.996;2023-02-15T13:05:18;22.95;;;11.23;;
39344;SDS011;25061;51.954;6.996;2023-02-15T13:07:56;23.23;;;10.25;;
39344;SDS011;25061;51.954;6.996;2023-02-15T13:10:27;23.92;;;11.02;;
39344;SDS011;25061;51.954;6.996;2023-02-15T13:13:00;24.10;;;10.73;;
39344;SDS011;25061;51.954;6.996;2023-02-15T13:17:57;22.42;;;10.80;;
39344;SDS011;25061;51.954;6.996;2023-02-15T13:20:24;22.98;;;11.43;;
39344;SDS011;25061;51.954;6.996;2023-02-15T13:22:53;23.05;;;10.88;;
39344;SDS011;25061;51.954;6.996;2023-02-15T13:25:23;20.50;;;10.48;;
39344;SDS011;25061;51.954;6.996;2023-02-15T13:28:03;23.40;;;11.45;;
39344;SDS011;25061;51.954;6.996;2023-02-15T13:30:31;22.30;;;11.02;;
39344;SDS011;25061;51.954;6.996;2023-02-15T13:33:11;27.55;;;11.70;;
39344;SDS011;25061;51.954;6.996;2023-02-15T13:41:16;22.65;;;10.52;;
39344;SDS011;25061;51.954;6.996;2023-02-15T13:52:40;21.85;;;9.63;;
39344;SDS011;25061;51.954;6.996;2023-02-15T13:58:06;19.60;;;9.90;;
39344;SDS011;25061;51.954;6.996;2023-02-15T14:00:46;20.85;;;9.35;;
39344;SDS011;25061;51.954;6.996;2023-02-15T14:06:20;22.02;;;9.57;;
39344;SDS011;25061;51.954;6.996;2023-02-15T14:09:11;24.52;;;9.38;;
39344;SDS011;25061;51.954;6.996;2023-02-15T14:14:28;22.05;;;9.75;;
39344;SDS011;25061;51.954;6.996;2023-02-15T14:17:18;21.63;;;10.30;;
39344;SDS011;25061;51.954;6.996;2023-02-15T14:20:11;22.40;;;10.43;;
39344;SDS011;25061;51.954;6.996;2023-02-15T14:30:43;22.25;;;10.05;;
39344;SDS011;25061;51.954;6.996;2023-02-15T14:35:40;24.58;;;11.27;;
39344;SDS011;25061;51.954;6.996;2023-02-15T14:38:15;24.98;;;10.73;;
39344;SDS011;25061;51.954;6.996;2023-02-15T14:45:58;24.05;;;10.73;;
39344;SDS011;25061;51.954;6.996;2023-02-15T14:48:47;24.80;;;11.75;;
39344;SDS011;25061;51.954;6.996;2023-02-15T14:54:03;25.60;;;11.82;;
39344;SDS011;25061;51.954;6.996;2023-02-15T14:56:28;24.05;;;11.82;;
39344;SDS011;25061;51.954;6.996;2023-02-15T14:58:55;25.00;;;12.30;;
39344;SDS011;25061;51.954;6.996;2023-02-15T15:01:26;21.67;;;10.85;;
39344;SDS011;25061;51.954;6.996;2023-02-15T15:04:02;25.13;;;11.82;;
39344;SDS011;25061;51.954;6.996;2023-02-15T15:06:34;23.63;;;11.27;;
39344;SDS011;25061;51.954;6.996;2023-02-15T15:11:54;24.27;;;10.60;;
39344;SDS011;25061;51.954;6.996;2023-02-15T15:14:38;24.67;;;11.77;;
39344;SDS011;25061;51.954;6.996;2023-02-15T15:17:12;25.02;;;11.55;;
39344;SDS011;25061;51.954;6.996;2023-02-15T15:19:59;32.70;;;12.07;;
39344;SDS011;25061;51.954;6.996;2023-02-15T15:22:27;25.80;;;11.38;;
39344;SDS011;25061;51.954;6.996;2023-02-15T15:24:55;25.20;;;11.20;;
39344;SDS011;25061;51.954;6.996;2023-02-15T15:27:40;25.92;;;11.52;;
39344;SDS011;25061;51.954;6.996;2023-02-15T15:41:09;24.00;;;11.45;;
39344;SDS011;25061;51.954;6.996;2023-02-15T15:49:40;26.77;;;11.35;;
39344;SDS011;25061;51.954;6.996;2023-02-15T15:52:25;24.40;;;10.80;;
39344;SDS011;25061;51.954;6.996;2023-02-15T15:54:56;24.13;;;10.95;;
39344;SDS011;25061;51.954;6.996;2023-02-15T15:57:34;27.35;;;11.82;;
39344;SDS011;25061;51.954;6.996;2023-02-15T16:00:04;25.80;;;10.80;;
39344;SDS011;25061;51.954;6.996;2023-02-15T16:02:51;24.73;;;11.00;;
39344;SDS011;25061;51.954;6.996;2023-02-15T16:05:18;25.02;;;11.13;;
39344;SDS011;25061;51.954;6.996;2023-02-15T16:07:44;25.10;;;11.60;;
39344;SDS011;25061;51.954;6.996;2023-02-15T16:10:26;24.98;;;11.07;;
39344;SDS011;25061;51.954;6.996;2023-02-15T16:12:54;25.80;;;10.27;;
39344;SDS011;25061;51.954;6.996;2023-02-15T16:15:22;24.60;;;10.55;;
39344;SDS011;25061;51.954;6.996;2023-02-15T16:17:53;25.90;;;11.82;;
39344;SDS011;25061;51.954;6.996;2023-02-15T16:20:40;26.15;;;11.10;;
39344;SDS011;25061;51.954;6.996;2023-02-15T16:29:16;27.30;;;11.05;;
39344;SDS011;25061;51.954;6.996;2023-02-15T16:31:43;24.42;;;11.27;;
39344;SDS011;25061;51.954;6.996;2023-02-15T16:34:20;30.55;;;12.30;;
39344;SDS011;25061;51.954;6.996;2023-02-15T16:36:46;32.90;;;13.98;;
39344;SDS011;25061;51.954;6.996;2023-02-15T16:39:18;34.17;;;12.68;;
39344;SDS011;25061;51.954;6.996;2023-02-15T16:41:45;23.30;;;11.38;;
39344;SDS011;25061;51.954;6.996;2023-02-15T16:44:14;25.02;;;11.77;;
39344;SDS011;25061;51.954;6.996;2023-02-15T16:46:43;26.88;;;11.43;;
39344;SDS011;25061;51.954;6.996;2023-02-15T16:49:26;26.08;;;11.63;;
39344;SDS011;25061;51.954;6.996;2023-02-15T16:51:54;28.95;;;12.00;;
39344;SDS011;25061;51.954;6.996;2023-02-15T16:54:22;24.70;;;11.07;;
39344;SDS011;25061;51.954;6.996;2023-02-15T16:56:50;28.08;;;12.82;;
39344;SDS011;25061;51.954;6.996;2023-02-15T17:01:56;28.27;;;12.90;;
39344;SDS011;25061;51.954;6.996;2023-02-15T17:04:26;25.70;;;12.40;;
39344;SDS011;25061;51.954;6.996;2023-02-15T17:06:57;28.93;;;12.30;;
39344;SDS011;25061;51.954;6.996;2023-02-15T17:09:24;25.35;;;11.80;;
39344;SDS011;25061;51.954;6.996;2023-02-15T17:11:50;26.58;;;12.48;;
39344;SDS011;25061;51.954;6.996;2023-02-15T17:14:50;26.73;;;12.63;;
39344;SDS011;25061;51.954;6.996;2023-02-15T17:17:12;25.17;;;11.93;;
39344;SDS011;25061;51.954;6.996;2023-02-15T17:19:42;29.73;;;12.30;;
39344;SDS011;25061;51.954;6.996;2023-02-15T17:22:26;28.52;;;13.40;;
39344;SDS011;25061;51.954;6.996;2023-02-15T17:24:58;26.70;;;12.70;;
39344;SDS011;25061;51.954;6.996;2023-02-15T17:27:26;26.77;;;12.30;;
39344;SDS011;25061;51.954;6.996;2023-02-15T17:29:57;29.38;;;13.80;;
39344;SDS011;25061;51.954;6.996;2023-02-15T17:32:26;24.98;;;11.50;;
39344;SDS011;25061;51.954;6.996;2023-02-15T17:39:51;28.85;;;13.68;;
39344;SDS011;25061;51.954;6.996;2023-02-15T17:42:17;27.75;;;12.90;;
39344;SDS011;25061;51.954;6.996;2023-02-15T17:44:43;26.00;;;13.05;;
39344;SDS011;25061;51.954;6.996;2023-02-15T17:47:13;31.30;;;13.38;;
39344;SDS011;25061;51.954;6.996;2023-02-15T17:49:44;31.42;;;13.43;;
39344;SDS011;25061;51.954;6.996;2023-02-15T17:52:14;29.83;;;13.63;;
39344;SDS011;25061;51.954;6.996;2023-02-15T17:54:41;29.92;;;12.00;;
39344;SDS011;25061;51.954;6.996;2023-02-15T17:57:25;34.00;;;13.35;;